Time;durP1;ratioP1;P1;durP2;ratioP2;P2;SDS_P1;SDS_P2;PMS_P1;PMS_P2;Temp;Humidity;BMP_temperature;BMP_pressure;BME280_temperature;BME280_humidity;BME280_pressure;Samples;Min_cycle;Max_cycle;Signal;HPM_P1;HPM_P2
2023/09/15 00:02:18;;;;;;;19.27;15.00;;;;;;;13.02;100.00;101957.81;5069897;28;20036;-73
2023/09/15 00:04:46;;;;;;;20.88;15.20;;;;;;;13.03;100.00;101961.28;5065933;28;20044;-73
2023/09/15 00:07:12;;;;;;;18.80;14.77;;;;;;;12.96;100.00;101963.16;5070398;28;20379;-74
2023/09/15 00:09:37;;;;;;;20.67;15.90;;;;;;;12.94;100.00;101950.97;5071916;28;20028;-74
2023/09/15 00:12:03;;;;;;;20.10;15.63;;;;;;;12.95;100.00;101952.69;5070042;28;20021;-74
2023/09/15 00:14:29;;;;;;;19.73;15.90;;;;;;;12.88;100.00;101957.16;5072657;28;20175;-74
2023/09/15 00:16:54;;;;;;;22.20;15.48;;;;;;;12.87;100.00;101955.44;5070034;28;20116;-74
2023/09/15 00:19:20;;;;;;;18.73;15.45;;;;;;;12.82;100.00;101952.03;5072029;28;20439;-74
2023/09/15 00:21:48;;;;;;;19.30;14.88;;;;;;;12.81;100.00;101956.38;5071872;28;20048;-74
2023/09/15 00:24:14;;;;;;;21.42;16.20;;;;;;;12.81;100.00;101950.28;5070009;28;20080;-74
2023/09/15 00:26:40;;;;;;;20.98;15.77;;;;;;;12.77;100.00;101939.00;5073163;28;20043;-74
2023/09/15 00:29:07;;;;;;;20.95;16.17;;;;;;;12.78;100.00;101945.94;5067156;28;20922;-74
2023/09/15 00:31:33;;;;;;;20.85;16.83;;;;;;;12.72;100.00;101946.06;5073244;28;20032;-73
2023/09/15 00:33:58;;;;;;;20.45;15.60;;;;;;;12.68;100.00;101944.38;5068327;28;20111;-74
2023/09/15 00:36:23;;;;;;;20.10;15.45;;;;;;;12.67;100.00;101941.78;5071985;28;20492;-74
2023/09/15 00:38:49;;;;;;;21.25;17.23;;;;;;;12.65;100.00;101944.41;5068469;28;20032;-74
2023/09/15 00:41:14;;;;;;;19.05;15.80;;;;;;;12.57;100.00;101930.59;5071342;28;20039;-73
2023/09/15 00:43:40;;;;;;;18.98;16.50;;;;;;;12.56;100.00;101931.50;5067381;28;20028;-74
2023/09/15 00:46:06;;;;;;;22.02;16.65;;;;;;;12.53;100.00;101935.00;5070848;28;20078;-73
2023/09/15 00:48:32;;;;;;;21.17;16.77;;;;;;;12.55;100.00;101933.22;5070030;28;20048;-74
2023/09/15 00:50:57;;;;;;;24.33;17.42;;;;;;;12.52;100.00;101935.88;5072546;28;20052;-74
2023/09/15 00:53:24;;;;;;;21.63;16.50;;;;;;;12.53;100.00;101929.78;5069222;28;20051;-74
2023/09/15 00:55:54;;;;;;;18.25;15.60;;;;;;;12.54;100.00;101936.72;5072883;28;20075;-74
2023/09/15 00:58:20;;;;;;;22.58;16.77;;;;;;;12.49;100.00;101929.81;5068379;28;20028;-74
2023/09/15 01:00:46;;;;;;;24.35;16.50;;;;;;;12.48;100.00;101933.34;5072438;28;20028;-74
2023/09/15 01:03:17;;;;;;;19.33;16.60;;;;;;;12.49;100.00;101929.81;5069282;28;20025;-74
2023/09/15 01:05:44;;;;;;;23.42;17.10;;;;;;;12.45;100.00;101930.75;5064376;28;20086;-73
2023/09/15 01:08:10;;;;;;;19.50;16.38;;;;;;;12.38;100.00;101920.38;5063983;28;20115;-73
2023/09/15 01:10:37;;;;;;;21.83;16.58;;;;;;;12.33;100.00;101916.97;5072236;28;20025;-74
2023/09/15 01:13:04;;;;;;;23.23;16.55;;;;;;;12.35;100.00;101928.25;5071741;28;20475;-74
2023/09/15 01:15:35;;;;;;;20.60;16.10;;;;;;;12.31;100.00;101926.56;5067690;28;20052;-73
2023/09/15 01:18:26;;;;;;;19.60;15.88;;;;;;;12.28;100.00;101923.16;5056589;28;20032;-74
2023/09/15 01:21:13;;;;;;;24.05;17.40;;;;;;;12.28;100.00;101925.75;5066302;28;20024;-74
2023/09/15 01:24:15;;;;;;;23.35;16.98;;;;;;;12.26;100.00;101927.53;5071223;28;20029;-73
2023/09/15 01:27:18;;;;;;;23.45;17.65;;;;;;;12.21;100.00;101916.28;5064485;28;20456;-74
2023/09/15 01:29:56;;;;;;;26.20;17.83;;;;;;;12.13;100.00;101905.91;5065290;28;20480;-73
2023/09/15 01:32:22;;;;;;;25.58;17.65;;;;;;;12.09;100.00;101915.53;5064490;28;20085;-74
2023/09/15 01:34:52;;;;;;;23.42;17.40;;;;;;;12.11;100.00;101920.75;5072057;28;20032;-74
2023/09/15 01:37:19;;;;;;;24.27;18.00;;;;;;;12.08;100.00;101910.34;5060975;28;20090;-74
2023/09/15 01:39:45;;;;;;;22.00;17.30;;;;;;;12.06;100.00;101907.72;5071083;28;20028;-74
2023/09/15 01:42:10;;;;;;;20.52;17.60;;;;;;;12.04;100.00;101904.28;5065987;28;20024;-74
2023/09/15 01:44:36;;;;;;;20.17;16.63;;;;;;;12.02;100.00;101905.19;5071501;28;20032;-74
2023/09/15 01:47:01;;;;;;;22.30;17.15;;;;;;;11.99;100.00;101905.22;5066388;28;20384;-74
2023/09/15 01:49:28;;;;;;;22.33;17.15;;;;;;;11.96;100.00;101900.88;5069304;28;20043;-74
2023/09/15 01:51:55;;;;;;;21.33;17.65;;;;;;;11.93;100.00;101901.81;5066853;28;20067;-74
2023/09/15 01:54:21;;;;;;;22.33;18.08;;;;;;;11.91;100.00;101894.88;5068495;28;20610;-74
2023/09/15 01:56:49;;;;;;;23.15;17.88;;;;;;;11.90;100.00;101894.00;5066491;28;20141;-74
2023/09/15 01:59:14;;;;;;;23.40;18.45;;;;;;;11.77;100.00;101884.56;5069210;28;20029;-74
2023/09/15 02:01:40;;;;;;;21.60;17.63;;;;;;;11.86;100.00;101899.28;5054205;28;20073;-74
2023/09/15 02:04:06;;;;;;;24.05;17.20;;;;;;;11.86;100.00;101897.53;5065306;28;20384;-74
2023/09/15 02:06:31;;;;;;;23.33;18.95;;;;;;;11.85;100.00;101898.41;5069757;28;20399;-73
2023/09/15 02:08:57;;;;;;;26.08;18.27;;;;;;;11.82;100.00;101897.56;5068027;28;20035;-73
2023/09/15 02:11:22;;;;;;;25.45;18.30;;;;;;;11.81;100.00;101901.91;5071795;28;20029;-73
2023/09/15 02:13:48;;;;;;;22.63;17.63;;;;;;;11.81;100.00;101899.31;5068212;28;20043;-73
2023/09/15 02:16:13;;;;;;;20.90;17.70;;;;;;;11.76;100.00;101905.47;5070715;28;20036;-74
2023/09/15 02:18:40;;;;;;;24.40;18.10;;;;;;;11.74;100.00;101900.25;5066988;28;20035;-74
2023/09/15 02:21:05;;;;;;;22.38;17.92;;;;;;;11.72;100.00;101902.03;5075486;28;20016;-74
2023/09/15 02:23:30;;;;;;;24.75;17.83;;;;;;;11.69;100.00;101899.44;5070350;28;20116;-73
2023/09/15 02:25:56;;;;;;;21.90;18.05;;;;;;;11.65;100.00;101897.75;5073886;28;20502;-74
2023/09/15 02:28:21;;;;;;;21.42;17.38;;;;;;;11.62;100.00;101889.94;5070523;28;20074;-74
2023/09/15 02:30:48;;;;;;;22.08;16.80;;;;;;;11.63;100.00;101894.28;5073471;28;20071;-73
2023/09/15 02:33:13;;;;;;;21.73;17.75;;;;;;;11.58;100.00;101883.91;5072302;28;20025;-74
2023/09/15 02:35:39;;;;;;;22.25;17.55;;;;;;;11.58;100.00;101885.66;5071012;28;20043;-73
2023/09/15 02:38:04;;;;;;;23.05;17.88;;;;;;;11.54;100.00;101886.53;5073979;28;20025;-74
2023/09/15 02:40:30;;;;;;;23.92;17.92;;;;;;;11.51;100.00;101883.97;5069860;28;20384;-74
2023/09/15 02:42:56;;;;;;;22.42;17.15;;;;;;;11.47;100.00;101881.38;5074778;28;20491;-73
2023/09/15 02:45:21;;;;;;;22.55;17.83;;;;;;;11.41;100.00;101876.25;5067488;28;20033;-74
2023/09/15 02:47:46;;;;;;;23.85;16.88;;;;;;;11.44;100.00;101889.28;5075100;28;20028;-73
2023/09/15 02:50:12;;;;;;;19.88;16.88;;;;;;;11.43;100.00;101878.81;5068247;28;20048;-74
2023/09/15 02:52:37;;;;;;;24.40;17.10;;;;;;;11.41;100.00;101877.97;5073167;28;20020;-74
2023/09/15 02:55:04;;;;;;;20.65;17.02;;;;;;;11.39;100.00;101885.81;5069991;28;20419;-74
2023/09/15 02:57:30;;;;;;;22.95;17.27;;;;;;;11.35;100.00;101886.75;5071456;28;20033;-74
2023/09/15 02:59:56;;;;;;;21.60;17.33;;;;;;;11.30;100.00;101875.47;5069640;28;20028;-74
2023/09/15 03:02:22;;;;;;;23.65;17.50;;;;;;;11.24;100.00;101881.59;5072160;28;20037;-74
2023/09/15 03:04:48;;;;;;;21.80;17.05;;;;;;;11.22;100.00;101872.09;5071482;28;20024;-74
2023/09/15 03:07:14;;;;;;;19.98;16.90;;;;;;;11.27;100.00;101879.88;5071883;28;20024;-74
2023/09/15 03:09:39;;;;;;;21.05;16.85;;;;;;;11.28;100.00;101874.66;5074366;28;20472;-73
2023/09/15 03:12:05;;;;;;;24.15;17.30;;;;;;;11.28;100.00;101878.97;5070928;28;20471;-73
2023/09/15 03:14:31;;;;;;;23.48;16.70;;;;;;;11.21;100.00;101868.59;5074136;28;20094;-74
2023/09/15 03:16:56;;;;;;;23.10;17.55;;;;;;;11.22;100.00;101872.09;5074829;28;20439;-74
2023/09/15 03:19:22;;;;;;;21.75;16.90;;;;;;;11.22;100.00;101886.00;5069963;28;20503;-74
2023/09/15 03:21:47;;;;;;;21.67;17.33;;;;;;;11.21;100.00;101872.94;5072318;28;20060;-74
2023/09/15 03:24:12;;;;;;;22.00;17.38;;;;;;;11.17;100.00;101872.13;5069764;28;20071;-74
2023/09/15 03:26:39;;;;;;;20.98;16.75;;;;;;;11.15;100.00;101865.16;5071850;28;20060;-73
2023/09/15 03:29:05;;;;;;;20.63;16.95;;;;;;;11.14;100.00;101871.28;5069814;28;20024;-73
2023/09/15 03:31:30;;;;;;;22.33;16.73;;;;;;;11.13;100.00;101859.13;5071496;28;20383;-73
2023/09/15 03:33:56;;;;;;;24.90;17.23;;;;;;;11.08;100.00;101860.91;5068528;28;20036;-73
2023/09/15 03:36:22;;;;;;;23.00;16.65;;;;;;;11.11;100.00;101866.94;5072376;28;20028;-74
2023/09/15 03:38:47;;;;;;;20.83;16.70;;;;;;;11.08;100.00;101851.31;5068416;28;20028;-73
2023/09/15 03:41:13;;;;;;;19.75;16.38;;;;;;;11.07;100.00;101861.78;5071683;28;20047;-73
2023/09/15 03:43:38;;;;;;;20.00;16.75;;;;;;;11.05;100.00;101856.56;5068872;28;20033;-73
2023/09/15 03:46:03;;;;;;;20.55;16.38;;;;;;;11.02;100.00;101854.00;5071066;28;20037;-74
2023/09/15 03:48:29;;;;;;;22.23;16.33;;;;;;;10.99;100.00;101860.13;5070175;28;20049;-74
2023/09/15 03:50:55;;;;;;;21.00;16.13;;;;;;;10.88;100.00;101842.81;5069957;28;20029;-73
2023/09/15 03:53:20;;;;;;;20.13;16.73;;;;;;;10.95;100.00;101857.53;5071618;28;20423;-74
2023/09/15 03:55:47;;;;;;;20.38;16.25;;;;;;;10.94;100.00;101859.28;5067282;28;20024;-74
2023/09/15 03:58:12;;;;;;;23.23;17.10;;;;;;;10.95;100.00;101861.03;5073935;28;20029;-73
2023/09/15 04:00:38;;;;;;;21.17;15.43;;;;;;;10.90;100.00;101847.16;5069673;28;20021;-74
2023/09/15 04:03:04;;;;;;;24.17;16.25;;;;;;;10.91;100.00;101861.91;5073968;28;20031;-74
2023/09/15 04:05:30;;;;;;;19.65;15.50;;;;;;;10.90;100.00;101860.19;5070434;28;20618;-73
2023/09/15 04:07:56;;;;;;;19.45;15.98;;;;;;;10.86;100.00;101855.88;5071106;28;20032;-74
2023/09/15 04:10:22;;;;;;;19.60;15.75;;;;;;;10.87;100.00;101849.78;5074043;28;20028;-74
2023/09/15 04:12:47;;;;;;;21.13;16.10;;;;;;;10.84;100.00;101849.81;5069641;28;20495;-74
2023/09/15 04:15:15;;;;;;;19.25;15.80;;;;;;;10.80;100.00;101855.94;5072839;28;20090;-74
2023/09/15 04:17:40;;;;;;;20.00;15.93;;;;;;;10.78;100.00;101847.25;5072242;28;20032;-73
2023/09/15 04:20:09;;;;;;;19.83;15.65;;;;;;;10.73;100.00;101846.44;5068568;28;20128;-73
2023/09/15 04:22:42;;;;;;;21.10;16.35;;;;;;;10.69;100.00;101842.09;5072505;28;20411;-74
2023/09/15 04:25:11;;;;;;;21.25;15.48;;;;;;;10.62;100.00;101835.19;5063758;28;20025;-74
2023/09/15 04:27:37;;;;;;;19.35;15.35;;;;;;;10.60;100.00;101835.22;5073062;28;20329;-74
2023/09/15 04:30:03;;;;;;;20.40;15.95;;;;;;;10.69;100.00;101847.31;5065576;28;20082;-73
2023/09/15 04:32:28;;;;;;;18.17;15.35;;;;;;;10.65;100.00;101840.41;5073185;28;20060;-74
2023/09/15 04:34:53;;;;;;;18.92;14.63;;;;;;;10.65;100.00;101845.59;5067284;28;20024;-74
2023/09/15 04:37:20;;;;;;;19.08;15.48;;;;;;;10.63;100.00;101840.41;5071102;28;20033;-73
2023/09/15 04:39:47;;;;;;;24.45;15.43;;;;;;;10.62;100.00;101840.41;5067907;28;20074;-73
2023/09/15 04:42:12;;;;;;;20.92;15.30;;;;;;;10.62;100.00;101837.81;5069535;28;20384;-74
2023/09/15 04:44:39;;;;;;;22.25;15.77;;;;;;;10.61;100.00;101841.31;5066592;28;20032;-74
2023/09/15 04:47:05;;;;;;;23.42;16.05;;;;;;;10.57;100.00;101842.22;5070218;28;20086;-73
2023/09/15 04:49:31;;;;;;;19.85;15.15;;;;;;;10.47;100.00;101831.84;5066299;28;20036;-74
2023/09/15 04:51:57;;;;;;;21.23;16.25;;;;;;;10.55;100.00;101845.69;5070119;28;20020;-74
2023/09/15 04:54:22;;;;;;;20.95;16.15;;;;;;;10.53;100.00;101850.06;5072542;28;20025;-73
2023/09/15 04:56:47;;;;;;;19.00;15.32;;;;;;;10.51;100.00;101849.19;5069125;28;20062;-73
2023/09/15 04:59:16;;;;;;;19.75;15.27;;;;;;;10.49;100.00;101845.72;5072644;28;20115;-74
2023/09/15 05:01:45;;;;;;;21.25;15.70;;;;;;;10.47;100.00;101849.22;5069367;28;20021;-74
2023/09/15 05:04:11;;;;;;;21.52;16.17;;;;;;;10.48;100.00;101853.56;5070263;28;20025;-74
2023/09/15 05:06:37;;;;;;;18.52;15.63;;;;;;;10.39;100.00;101835.38;5069294;28;20032;-74
2023/09/15 05:09:08;;;;;;;22.35;16.02;;;;;;;10.47;100.00;101857.91;5072442;28;20361;-73
2023/09/15 05:11:37;;;;;;;21.85;15.63;;;;;;;10.49;100.00;101860.50;5064433;28;20032;-74
2023/09/15 05:14:03;;;;;;;20.65;15.30;;;;;;;10.46;100.00;101852.69;5072319;28;20028;-74
2023/09/15 05:16:28;;;;;;;20.27;15.63;;;;;;;10.46;100.00;101856.19;5072253;28;20039;-73
2023/09/15 05:18:53;;;;;;;21.35;15.52;;;;;;;10.43;100.00;101850.09;5067209;28;20020;-74
2023/09/15 05:21:19;;;;;;;22.60;15.52;;;;;;;10.45;100.00;101864.88;5070860;28;20039;-74
2023/09/15 05:23:44;;;;;;;19.95;15.15;;;;;;;10.41;100.00;101862.31;5067265;28;20044;-73
2023/09/15 05:26:09;;;;;;;18.10;14.80;;;;;;;10.31;100.00;101851.94;5069698;28;20471;-74
2023/09/15 05:28:35;;;;;;;20.50;14.88;;;;;;;10.39;100.00;101854.47;5067262;28;20029;-74
2023/09/15 05:31:00;;;;;;;21.05;15.38;;;;;;;10.46;100.00;101860.50;5070267;28;20078;-73
2023/09/15 05:33:26;;;;;;;20.67;15.18;;;;;;;10.43;100.00;101856.22;5066601;28;20025;-74
2023/09/15 05:35:56;;;;;;;20.42;14.95;;;;;;;10.45;100.00;101851.84;5069448;28;20376;-73
2023/09/15 05:38:24;;;;;;;20.25;15.23;;;;;;;10.48;100.00;101857.03;5067371;28;20025;-74
2023/09/15 05:40:50;;;;;;;19.95;15.50;;;;;;;10.51;100.00;101857.00;5068553;28;20033;-74
2023/09/15 05:43:19;;;;;;;20.35;15.52;;;;;;;10.55;100.00;101856.09;5069473;28;20188;-73
2023/09/15 05:45:45;;;;;;;22.30;14.48;;;;;;;10.60;100.00;101856.09;5066353;28;20035;-74
2023/09/15 05:48:13;;;;;;;21.15;14.90;;;;;;;10.63;100.00;101857.81;5070719;28;20085;-74
2023/09/15 05:50:39;;;;;;;17.17;14.40;;;;;;;10.62;100.00;101856.91;5065191;28;20021;-73
2023/09/15 05:53:05;;;;;;;18.13;14.48;;;;;;;10.70;100.00;101869.94;5071587;28;20012;-73
2023/09/15 05:55:31;;;;;;;17.88;14.75;;;;;;;10.74;100.00;101867.28;5068270;28;20162;-74
2023/09/15 05:57:56;;;;;;;19.67;15.00;;;;;;;10.76;100.00;101869.88;5071871;28;20074;-74
2023/09/15 06:00:22;;;;;;;20.15;14.98;;;;;;;10.83;100.00;101868.94;5069979;28;20035;-74
2023/09/15 06:02:47;;;;;;;19.02;13.65;;;;;;;10.86;100.00;101866.31;5069404;28;20111;-73
2023/09/15 06:05:13;;;;;;;18.33;14.20;;;;;;;10.89;100.00;101868.91;5071093;28;20024;-74
2023/09/15 06:07:38;;;;;;;20.27;14.68;;;;;;;10.92;100.00;101868.88;5067493;28;20059;-73
2023/09/15 06:10:05;;;;;;;16.67;13.15;;;;;;;10.95;100.00;101855.81;5071982;28;20095;-73
2023/09/15 06:12:31;;;;;;;17.33;13.48;;;;;;;11.05;100.00;101866.13;5067646;28;20031;-73
2023/09/15 06:14:57;;;;;;;17.63;13.73;;;;;;;11.07;100.00;101867.00;5070986;28;20020;-74
2023/09/15 06:17:23;;;;;;;19.50;13.63;;;;;;;11.12;100.00;101870.44;5071827;28;20021;-73
2023/09/15 06:19:49;;;;;;;15.93;12.90;;;;;;;11.19;100.00;101869.50;5064892;28;20107;-74
2023/09/15 06:22:14;;;;;;;18.52;13.23;;;;;;;11.27;100.00;101867.66;5071193;28;20021;-73
2023/09/15 06:24:39;;;;;;;17.33;13.25;;;;;;;11.29;100.00;101862.44;5066546;28;20029;-74
2023/09/15 06:27:05;;;;;;;16.33;12.25;;;;;;;11.39;100.00;101859.72;5070132;28;20075;-74
2023/09/15 06:29:30;;;;;;;15.27;12.45;;;;;;;11.46;100.00;101856.16;5065770;28;20064;-73
2023/09/15 06:31:55;;;;;;;18.27;13.10;;;;;;;11.57;100.00;101860.38;5069200;28;20063;-74
2023/09/15 06:34:20;;;;;;;18.63;12.20;;;;;;;11.61;100.00;101856.88;5066470;28;20087;-74
2023/09/15 06:36:46;;;;;;;16.20;12.15;;;;;;;11.67;100.00;101852.44;5068485;28;20357;-74
2023/09/15 06:39:11;;;;;;;18.67;12.55;;;;;;;11.70;100.00;101855.00;5066238;28;20037;-74
2023/09/15 06:41:36;;;;;;;19.13;12.38;;;;;;;11.83;100.00;101862.69;5068174;28;20047;-74
2023/09/15 06:44:02;;;;;;;19.75;12.18;;;;;;;11.89;100.00;101855.69;5065836;28;20052;-74
2023/09/15 06:46:27;;;;;;;15.75;11.73;;;;;;;11.93;100.00;101851.28;5068603;28;20064;-73
2023/09/15 06:48:53;;;;;;;14.50;10.93;;;;;;;11.95;100.00;101846.91;5064964;28;20044;-74
2023/09/15 06:51:18;;;;;;;13.50;10.98;;;;;;;11.99;100.00;101843.34;5068767;28;20021;-74
2023/09/15 06:53:45;;;;;;;14.32;11.00;;;;;;;12.04;100.00;101838.09;5071135;28;20495;-74
2023/09/15 06:56:10;;;;;;;16.45;10.68;;;;;;;12.17;100.00;101848.34;5067858;28;20056;-74
2023/09/15 06:58:35;;;;;;;14.50;11.13;;;;;;;12.24;100.00;101850.88;5071028;28;20063;-74
2023/09/15 07:01:03;;;;;;;16.35;11.20;;;;;;;12.29;100.00;101849.91;5068129;28;20037;-74
2023/09/15 07:03:28;;;;;;;15.85;10.88;;;;;;;12.30;100.00;101832.50;5069934;28;20025;-74
2023/09/15 07:05:54;;;;;;;15.60;11.18;;;;;;;12.39;100.00;101840.16;5067483;28;20040;-74
2023/09/15 07:08:19;;;;;;;14.88;10.93;;;;;;;12.46;100.00;101848.78;5074728;28;20093;-74
2023/09/15 07:10:50;;;;;;;15.98;11.52;;;;;;;12.50;100.00;101847.88;5070937;28;20075;-74
2023/09/15 07:13:16;;;;;;;15.25;10.57;;;;;;;12.56;100.00;101840.78;5064856;28;20109;-74
2023/09/15 07:15:41;;;;;;;15.95;10.98;;;;;;;12.53;100.00;101819.06;5074280;28;20460;-74
2023/09/15 07:18:07;;;;;;;16.02;10.80;;;;;;;12.70;100.00;101832.72;5069354;28;20112;-74
2023/09/15 07:20:32;;;;;;;14.13;10.07;;;;;;;12.77;100.00;101836.94;5072830;28;20024;-74
2023/09/15 07:22:58;;;;;;;13.35;10.30;;;;;;;12.80;100.00;101834.28;5071637;28;20017;-74
2023/09/15 07:25:24;;;;;;;14.07;10.15;;;;;;;12.91;100.00;101831.47;5070277;28;20058;-74
2023/09/15 07:27:50;;;;;;;14.00;10.43;;;;;;;12.97;100.00;101830.50;5073063;28;20025;-74
2023/09/15 07:30:15;;;;;;;15.05;10.68;;;;;;;13.02;100.00;101821.69;5068618;28;20485;-74
2023/09/15 07:32:41;;;;;;;13.77;10.65;;;;;;;13.11;100.00;101829.38;5073477;28;20144;-74
2023/09/15 07:35:08;;;;;;;17.52;10.35;;;;;;;13.20;100.00;101823.09;5067241;28;20031;-74
2023/09/15 07:37:35;;;;;;;12.18;9.85;;;;;;;13.25;100.00;101826.53;5074404;28;20035;-74
2023/09/15 07:40:01;;;;;;;12.80;9.63;;;;;;;13.35;100.00;101824.63;5067461;28;20107;-74
2023/09/15 07:42:26;;;;;;;12.48;9.32;;;;;;;13.42;100.00;101818.34;5072983;28;20025;-74
2023/09/15 07:44:51;;;;;;;14.02;10.63;;;;;;;13.48;100.00;101820.00;5068407;28;20467;-73
2023/09/15 07:47:17;;;;;;;13.30;9.68;;;;;;;13.58;100.00;101824.16;5071392;28;20510;-73
2023/09/15 07:49:42;;;;;;;13.82;9.80;;;;;;;13.66;100.00;101822.22;5068299;28;20041;-74
2023/09/15 07:52:07;;;;;;;15.98;9.93;;;;;;;13.71;100.00;101814.28;5070544;28;20128;-73
2023/09/15 07:54:33;;;;;;;12.00;9.60;;;;;;;13.76;100.00;101812.41;5068076;28;20460;-74
2023/09/15 07:56:58;;;;;;;12.38;9.70;;;;;;;13.82;100.00;101815.75;5071206;28;20120;-74
2023/09/15 07:59:24;;;;;;;15.15;9.77;;;;;;;13.92;100.00;101813.81;5073020;28;20380;-74
2023/09/15 08:01:49;;;;;;;14.93;10.13;;;;;;;14.02;100.00;101811.84;5070536;28;20036;-74
2023/09/15 08:04:15;;;;;;;12.38;9.82;;;;;;;14.13;100.00;101817.72;5071567;28;20036;-74
2023/09/15 08:06:40;;;;;;;13.20;9.82;;;;;;;14.19;100.00;101811.47;5069382;28;20052;-74
2023/09/15 08:09:06;;;;;;;12.73;9.20;;;;;;;14.27;100.00;101799.91;5073610;28;20071;-74
2023/09/15 08:11:37;;;;;;;14.07;9.68;;;;;;;14.41;100.00;101801.34;5070177;28;20039;-74
2023/09/15 08:14:02;;;;;;;12.70;9.18;;;;;;;14.51;100.00;101808.13;5072803;28;20028;-74
2023/09/15 08:16:28;;;;;;;14.00;9.48;;;;;;;14.56;100.00;101802.78;5073299;28;20098;-74
2023/09/15 08:18:53;;;;;;;10.35;8.68;;;;;;;14.60;100.00;101810.50;5068953;28;20104;-81
2023/09/15 08:21:18;;;;;;;12.60;9.05;;;;;;;14.67;100.00;101808.59;5071310;28;20024;-74
2023/09/15 08:23:44;;;;;;;10.77;8.65;;;;;;;14.72;100.00;101806.72;5068507;28;20028;-73
2023/09/15 08:26:09;;;;;;;18.25;9.27;;;;;;;14.81;100.00;101805.63;5071402;28;20071;-74
2023/09/15 08:28:35;;;;;;;14.32;9.02;;;;;;;14.89;100.00;101799.28;5067563;28;20029;-74
2023/09/15 08:31:00;;;;;;;11.35;8.95;;;;;;;14.97;100.00;101796.44;5071425;28;20483;-74
2023/09/15 08:33:27;;;;;;;10.60;8.32;;;;;;;15.10;100.00;101803.09;5068541;28;20118;-74
2023/09/15 08:35:53;;;;;;;12.88;8.32;;;;;;;15.14;100.00;101803.84;5070571;28;20035;-74
2023/09/15 08:38:18;;;;;;;13.73;8.15;;;;;;;15.26;100.00;101803.53;5069750;28;20033;-74
2023/09/15 08:40:54;;;;;;;9.32;8.27;;;;;;;15.40;100.00;101805.75;5061495;28;20021;-74
2023/09/15 08:43:19;;;;;;;11.25;8.07;;;;;;;15.48;100.00;101800.31;5068840;28;20101;-74
2023/09/15 08:45:47;;;;;;;11.82;8.15;;;;;;;15.56;100.00;101796.53;5061329;28;20021;-74
2023/09/15 08:48:21;;;;;;;13.80;7.70;;;;;;;15.70;100.00;101796.19;5068601;28;20380;-74
2023/09/15 08:50:47;;;;;;;10.50;7.82;;;;;;;15.76;100.00;101789.88;5061195;28;20025;-74
2023/09/15 08:53:13;;;;;;;12.60;7.50;;;;;;;15.85;100.00;101794.84;5069789;28;20028;-74
2023/09/15 08:55:39;;;;;;;14.68;7.20;;;;;;;15.96;100.00;101794.53;5060319;28;20035;-74
2023/09/15 08:58:06;;;;;;;13.63;7.72;;;;;;;16.05;100.00;101783.72;5061441;28;20024;-74
2023/09/15 09:00:32;;;;;;;12.52;6.50;;;;;;;16.13;100.00;101787.00;5066890;28;20033;-74
2023/09/15 09:02:59;;;;;;;8.52;7.13;;;;;;;16.23;100.00;101782.28;5060851;28;20033;-74
2023/09/15 09:05:27;;;;;;;9.00;7.07;;;;;;;16.32;100.00;101782.84;5066725;28;20087;-74
2023/09/15 09:07:54;;;;;;;8.63;6.80;;;;;;;16.48;100.00;101788.47;5061257;28;20029;-74
2023/09/15 09:10:21;;;;;;;10.30;7.18;;;;;;;16.58;100.00;101784.63;5065586;28;20166;-74
2023/09/15 09:12:46;;;;;;;10.52;6.75;;;;;;;16.75;100.00;101784.09;5061233;28;20032;-74
2023/09/15 09:15:15;;;;;;;12.90;6.38;;;;;;;16.87;100.00;101780.16;5064287;28;20567;-74
2023/09/15 09:17:40;;;;;;;8.18;6.00;;;;;;;16.98;100.00;101782.44;5070584;28;20064;-74
2023/09/15 09:20:06;;;;;;;11.23;6.43;;;;;;;17.03;100.00;101783.13;5067423;28;20075;-74
2023/09/15 09:22:33;;;;;;;11.35;6.00;;;;;;;17.16;100.00;101783.53;5072469;28;20035;-74
2023/09/15 09:24:58;;;;;;;9.27;5.85;;;;;;;17.27;100.00;101784.03;5065155;28;20036;-74
2023/09/15 09:27:34;;;;;;;12.80;6.05;;;;;;;17.40;100.00;101779.16;5072759;28;20032;-74
2023/09/15 09:29:59;;;;;;;6.93;5.95;;;;;;;17.49;100.00;101784.06;5065271;28;20048;-74
2023/09/15 09:32:25;;;;;;;8.65;5.25;;;;;;;17.61;100.00;101782.75;5071753;28;20483;-74
2023/09/15 09:34:50;;;;;;;6.40;5.18;;;;;;;17.69;100.00;101775.41;5067125;28;20372;-74
2023/09/15 09:37:17;;;;;;;5.95;4.75;;;;;;;17.77;100.00;101778.66;5070133;28;20067;-74
2023/09/15 09:39:46;;;;;;;7.55;5.55;;;;;;;17.89;100.00;101783.47;5066296;28;20024;-74
2023/09/15 09:42:12;;;;;;;9.30;5.72;;;;;;;17.95;100.00;101771.78;5069782;28;20039;-74
2023/09/15 09:44:37;;;;;;;10.55;6.15;;;;;;;18.06;100.00;101771.38;5065916;28;20020;-74
2023/09/15 09:47:07;;;;;;;8.70;4.93;;;;;;;18.07;100.00;101765.19;5069789;28;20021;-74
2023/09/15 09:49:34;;;;;;;5.57;4.70;;;;;;;18.18;100.00;101768.22;5066489;28;20047;-74
2023/09/15 09:52:00;;;;;;;7.28;4.65;;;;;;;18.22;100.00;101764.56;5069158;28;20059;-74
2023/09/15 09:54:28;;;;;;;8.18;4.97;;;;;;;18.35;100.00;101760.50;5066335;28;20025;-74
2023/09/15 09:56:54;;;;;;;7.85;5.38;;;;;;;18.46;100.00;101762.69;5069280;28;20159;-74
2023/09/15 09:59:21;;;;;;;7.82;4.95;;;;;;;18.58;100.00;101771.88;5065544;28;20111;-74
2023/09/15 10:01:46;;;;;;;8.07;4.72;;;;;;;18.63;100.00;101764.59;5069042;28;20028;-74
2023/09/15 10:04:13;;;;;;;5.85;4.57;;;;;;;18.76;100.00;101762.34;5071121;28;20028;-74
2023/09/15 10:06:39;;;;;;;8.43;4.80;;;;;;;18.79;100.00;101751.63;5067205;28;20111;-74
2023/09/15 10:09:05;;;;;;;7.57;4.70;;;;;;;18.91;100.00;101757.25;5072116;28;20111;-74
2023/09/15 10:11:35;;;;;;;9.10;4.95;;;;;;;19.00;100.00;101750.72;5063422;28;20459;-74
2023/09/15 10:14:03;;;;;;;9.35;5.35;;;;;;;19.09;100.00;101741.50;5071289;28;20021;-74
2023/09/15 10:16:30;;;;;;;5.55;4.78;;;;;;;19.31;100.00;101739.59;5071469;28;20383;-74
2023/09/15 10:18:57;;;;;;;9.05;5.22;;;;;;;19.39;100.00;101733.94;5067547;28;20031;-74
2023/09/15 10:21:26;;;;;;;8.00;4.55;;;;;;;19.61;100.00;101733.81;5069731;28;20052;-74
2023/09/15 10:24:04;;;;;;;8.65;4.30;;;;;;;19.56;100.00;101722.63;5066879;28;20131;-74
2023/09/15 10:26:31;;;;;;;7.30;4.70;;;;;;;19.59;100.00;101730.41;5069744;28;20036;-74
2023/09/15 10:28:56;;;;;;;8.90;4.55;;;;;;;19.62;100.00;101724.97;5065963;28;20421;-74
2023/09/15 10:31:22;;;;;;;5.95;4.50;;;;;;;19.70;100.00;101727.28;5069875;28;20023;-74
2023/09/15 10:33:48;;;;;;;7.03;4.22;;;;;;;19.84;100.00;101730.09;5065849;28;20028;-74
2023/09/15 10:36:15;;;;;;;9.75;5.20;;;;;;;19.95;100.00;101726.97;5069333;28;20822;-74
2023/09/15 10:38:41;;;;;;;7.78;5.07;;;;;;;20.00;100.00;101709.03;5066384;28;20052;-74
2023/09/15 10:41:09;;;;;;;7.75;5.80;;;;;;;20.06;100.00;101711.41;5070743;28;20024;-74
2023/09/15 10:43:34;;;;;;;8.23;5.10;;;;;;;20.17;100.00;101719.66;5070347;28;20377;-74
2023/09/15 10:46:06;;;;;;;6.85;4.68;;;;;;;20.23;100.00;101722.00;5073093;28;20024;-74
2023/09/15 10:48:43;;;;;;;6.60;4.25;;;;;;;20.29;100.00;101712.91;5055766;28;20041;-74
2023/09/15 10:51:10;;;;;;;7.63;4.78;;;;;;;20.40;94.92;101707.03;5067456;28;20416;-74
2023/09/15 10:53:49;;;;;;;8.85;4.15;;;;;;;20.50;96.85;101701.22;5071435;28;20345;-74
2023/09/15 10:56:16;;;;;;;5.38;3.70;;;;;;;20.59;97.18;101697.25;5066292;28;20029;-74
2023/09/15 10:58:42;;;;;;;5.63;4.30;;;;;;;20.71;98.19;101698.41;5070984;28;20035;-74
2023/09/15 11:01:10;;;;;;;7.25;4.20;;;;;;;20.90;95.33;101693.88;5070943;28;20100;-74
2023/09/15 11:03:37;;;;;;;5.45;4.25;;;;;;;20.92;93.44;101681.38;5073765;28;20042;-74